createdAt,value
2018-01-04T00:00:41.464Z,15.90
2018-01-04T00:03:07.656Z,30.13
2018-01-04T00:05:34.572Z,16.07
2018-01-04T00:08:00.780Z,10.10
2018-01-04T00:10:27.189Z,29.00
2018-01-04T00:12:54.194Z,24.33
2018-01-04T00:15:20.561Z,18.00
2018-01-04T00:17:46.993Z,18.93
2018-01-04T00:20:13.184Z,20.47
2018-01-04T00:22:39.380Z,17.30
2018-01-04T00:25:05.650Z,10.20
2018-01-04T00:27:31.858Z,18.93
2018-01-04T00:29:58.112Z,13.07
2018-01-04T00:32:24.349Z,25.50
2018-01-04T00:34:50.628Z,18.20
2018-01-04T00:37:17.601Z,18.23
2018-01-04T00:39:44.609Z,28.80
2018-01-04T00:42:10.900Z,31.90
2018-01-04T00:44:37.869Z,14.97
2018-01-04T00:47:04.072Z,21.03
2018-01-04T00:49:30.363Z,22.90
2018-01-04T00:51:56.568Z,15.27
2018-01-04T00:54:22.760Z,25.13
2018-01-04T00:56:49.047Z,16.20
2018-01-04T00:59:16.319Z,23.20
2018-01-04T01:01:42.522Z,20.70
2018-01-04T01:04:08.737Z,22.97
2018-01-04T01:06:34.920Z,18.00
2018-01-04T01:09:01.136Z,20.30
2018-01-04T01:11:27.377Z,18.73
2018-01-04T01:13:53.767Z,23.60
2018-01-04T01:16:19.992Z,26.93
2018-01-04T01:18:46.222Z,26.47
2018-01-04T01:21:12.448Z,23.00
2018-01-04T01:23:38.645Z,23.60
2018-01-04T01:26:05.604Z,17.50
2018-01-04T01:28:32.572Z,23.90
2018-01-04T01:30:58.798Z,23.17
2018-01-04T01:33:24.995Z,27.07
2018-01-04T01:35:51.335Z,34.80
2018-01-04T01:38:17.555Z,25.93
2018-01-04T01:40:43.747Z,19.37
2018-01-04T01:43:10.297Z,32.63
2018-01-04T01:45:36.492Z,23.30
2018-01-04T01:48:02.716Z,25.87
2018-01-04T01:50:29.131Z,15.27
2018-01-04T01:52:56.134Z,27.20
2018-01-04T01:55:22.676Z,23.77
2018-01-04T01:57:48.904Z,26.03
2018-01-04T02:00:15.201Z,26.63
2018-01-04T02:02:41.421Z,22.00
2018-01-04T02:05:07.645Z,33.73
2018-01-04T02:07:33.997Z,27.33
2018-01-04T02:10:00.209Z,14.30
2018-01-04T02:12:26.498Z,29.17
2018-01-04T02:14:53.031Z,32.03
2018-01-04T02:17:19.228Z,24.70
2018-01-04T02:23:06.286Z,31.70
2018-01-04T02:25:45.319Z,29.57
2018-01-04T02:28:23.917Z,19.97
2018-01-04T02:31:02.493Z,28.63
2018-01-04T02:33:41.789Z,25.80
2018-01-04T02:36:20.251Z,39.10
2018-01-04T02:38:51.383Z,26.37
2018-01-04T02:41:30.772Z,26.80
2018-01-04T02:43:59.676Z,30.27
2018-01-04T02:46:26.733Z,20.33
2018-01-04T02:48:52.912Z,26.53
2018-01-04T02:51:19.625Z,20.53
2018-01-04T02:53:45.789Z,27.93
2018-01-04T02:56:12.007Z,24.33
2018-01-04T02:58:38.954Z,20.63
2018-01-04T03:01:05.206Z,32.50
2018-01-04T03:03:31.390Z,20.17
2018-01-04T03:05:57.607Z,30.00
2018-01-04T03:08:24.737Z,19.50
2018-01-04T03:10:51.704Z,30.50
2018-01-04T03:13:18.017Z,15.43
2018-01-04T03:15:45.289Z,22.57
2018-01-04T03:18:11.569Z,20.20
2018-01-04T03:20:38.533Z,19.20
2018-01-04T03:23:11.612Z,18.40
2018-01-04T03:25:43.954Z,21.10
2018-01-04T03:28:16.164Z,20.07
2018-01-04T03:30:49.053Z,17.47
2018-01-04T03:33:21.406Z,17.60
2018-01-04T03:35:53.777Z,18.27
2018-01-04T03:38:26.868Z,16.13
2018-01-04T03:40:59.904Z,18.27
2018-01-04T03:43:32.220Z,10.83
2018-01-04T03:46:04.517Z,14.00
2018-01-04T03:48:30.940Z,16.90
2018-01-04T03:54:15.477Z,8.83
2018-01-04T03:56:47.711Z,10.23
2018-01-04T03:59:20.784Z,14.80
2018-01-04T04:01:53.560Z,14.13
2018-01-04T04:07:27.403Z,15.77
2018-01-04T04:09:53.632Z,8.00
2018-01-04T04:12:19.881Z,21.83
2018-01-04T04:14:46.113Z,16.20
2018-01-04T04:17:12.377Z,10.93
2018-01-04T04:19:38.636Z,18.20
2018-01-04T04:22:05.677Z,14.47
2018-01-04T04:24:31.984Z,14.17
2018-01-04T04:26:58.208Z,8.00
2018-01-04T04:29:24.492Z,16.33
2018-01-04T04:31:50.686Z,10.77
2018-01-04T04:34:16.983Z,13.53
2018-01-04T04:36:43.260Z,10.10
2018-01-04T04:39:09.455Z,10.33
2018-01-04T04:41:35.656Z,12.40
2018-01-04T04:44:01.961Z,11.87
2018-01-04T04:46:28.988Z,22.60
2018-01-04T04:48:55.201Z,19.10
2018-01-04T04:51:21.840Z,10.00
2018-01-04T04:53:48.040Z,8.67
2018-01-04T04:56:15.013Z,14.90
2018-01-04T04:58:41.943Z,13.23
2018-01-04T05:01:08.343Z,13.47
2018-01-04T05:03:34.526Z,16.73
2018-01-04T05:06:00.947Z,14.17
2018-01-04T05:08:27.331Z,16.03
2018-01-04T05:10:54.411Z,12.20
2018-01-04T05:13:21.356Z,16.13
2018-01-04T05:15:47.548Z,10.70
2018-01-04T05:18:15.398Z,14.90
2018-01-04T05:20:42.477Z,13.30
2018-01-04T05:23:08.684Z,17.53
2018-01-04T05:25:35.604Z,22.67
2018-01-04T05:28:02.221Z,11.00
2018-01-04T05:30:28.428Z,20.87
2018-01-04T05:32:55.356Z,13.00
2018-01-04T05:35:21.883Z,25.60
2018-01-04T05:37:48.156Z,14.43
2018-01-04T05:40:14.368Z,13.90
2018-01-04T05:42:40.590Z,22.93
2018-01-04T05:45:06.932Z,12.60
2018-01-04T05:47:33.204Z,24.37
2018-01-04T05:49:59.400Z,28.87
2018-01-04T05:52:25.684Z,19.33
2018-01-04T05:54:51.896Z,26.57
2018-01-04T05:57:18.120Z,21.93
2018-01-04T05:59:45.281Z,26.87
2018-01-04T06:02:12.074Z,26.77
2018-01-04T06:04:38.257Z,25.30
2018-01-04T06:07:04.583Z,26.73
2018-01-04T06:09:31.064Z,20.13
2018-01-04T06:11:57.996Z,26.43
2018-01-04T06:14:24.216Z,26.10
2018-01-04T06:16:50.605Z,21.33
2018-01-04T06:19:17.549Z,29.40
2018-01-04T06:21:43.732Z,24.90
2018-01-04T06:24:09.905Z,24.13
2018-01-04T06:26:36.202Z,31.47
2018-01-04T06:29:02.506Z,47.63
2018-01-04T06:31:28.733Z,27.40
2018-01-04T06:33:54.988Z,22.03
2018-01-04T06:36:21.172Z,36.93
2018-01-04T06:38:47.352Z,35.30
2018-01-04T06:41:13.610Z,26.63
2018-01-04T06:43:39.808Z,27.77
2018-01-04T06:46:06.023Z,21.43
2018-01-04T06:48:33.173Z,29.87
2018-01-04T06:51:00.127Z,22.37
2018-01-04T06:53:26.288Z,28.50
2018-01-04T06:55:52.865Z,23.87
2018-01-04T06:58:19.283Z,24.30
2018-01-04T07:00:45.447Z,17.60
2018-01-04T07:03:11.644Z,22.37
2018-01-04T07:05:38.879Z,18.57
2018-01-04T07:08:05.090Z,23.07
2018-01-04T07:10:31.383Z,18.47
2018-01-04T07:12:58.184Z,23.17
2018-01-04T07:15:24.384Z,18.93
2018-01-04T07:17:50.592Z,24.83
2018-01-04T07:20:16.801Z,28.27
2018-01-04T07:22:43.004Z,24.30
2018-01-04T07:25:09.202Z,18.07
2018-01-04T07:27:35.396Z,27.53
2018-01-04T07:30:02.652Z,22.00
2018-01-04T07:32:29.608Z,16.70
2018-01-04T07:34:55.808Z,12.00
2018-01-04T07:37:21.998Z,16.40
2018-01-04T07:39:48.207Z,20.83
2018-01-04T07:42:14.389Z,23.10
2018-01-04T07:44:40.616Z,20.43
2018-01-04T07:47:06.810Z,30.90
2018-01-04T07:49:32.992Z,14.37
2018-01-04T07:52:00.015Z,15.77
2018-01-04T07:54:26.188Z,15.50
2018-01-04T07:56:53.132Z,13.43
2018-01-04T07:59:19.310Z,21.83
2018-01-04T08:01:45.560Z,16.60
2018-01-04T08:04:11.744Z,18.10
2018-01-04T08:06:37.936Z,14.90
2018-01-04T08:09:04.228Z,13.40
2018-01-04T08:11:30.429Z,14.53
2018-01-04T08:13:56.583Z,9.83
2018-01-04T08:16:22.861Z,17.57
2018-01-04T08:18:49.106Z,21.60
2018-01-04T08:21:15.302Z,12.83
2018-01-04T08:23:41.606Z,11.10
2018-01-04T08:26:08.606Z,19.60
2018-01-04T08:28:34.825Z,18.50
2018-01-04T08:31:01.125Z,25.33
2018-01-04T08:33:27.343Z,21.87
2018-01-04T08:35:53.698Z,9.60
2018-01-04T08:38:19.951Z,19.60
2018-01-04T08:40:46.137Z,13.20
2018-01-04T08:43:12.340Z,19.77
2018-01-04T08:45:38.713Z,23.23
2018-01-04T08:48:04.957Z,9.23
2018-01-04T08:50:31.133Z,14.83
2018-01-04T08:52:57.404Z,15.90
2018-01-04T08:55:23.584Z,23.20
2018-01-04T08:57:49.796Z,18.27
2018-01-04T09:00:16.732Z,16.07
2018-01-04T09:02:42.980Z,24.13
2018-01-04T09:05:09.247Z,14.20
2018-01-04T09:07:36.196Z,15.47
2018-01-04T09:10:03.245Z,19.63
2018-01-04T09:12:29.440Z,28.80
2018-01-04T09:14:55.635Z,14.10
2018-01-04T09:17:21.988Z,17.60
2018-01-04T09:19:48.979Z,9.33
2018-01-04T09:22:15.142Z,14.17
2018-01-04T09:24:41.311Z,8.97
2018-01-04T09:27:07.472Z,8.63
2018-01-04T09:29:34.408Z,13.63
2018-01-04T09:32:00.585Z,13.63
2018-01-04T09:34:26.820Z,12.77
2018-01-04T09:36:53.006Z,23.83
2018-01-04T09:39:19.172Z,14.70
2018-01-04T09:41:45.540Z,12.90
2018-01-04T09:44:12.884Z,18.77
2018-01-04T09:46:39.053Z,9.37
2018-01-04T09:49:05.319Z,13.90
2018-01-04T09:51:31.499Z,11.80
2018-01-04T09:53:57.659Z,14.67
2018-01-04T09:56:24.643Z,11.97
2018-01-04T09:58:50.885Z,14.40
2018-01-04T10:01:17.072Z,11.53
2018-01-04T10:03:43.293Z,12.90
2018-01-04T10:06:09.541Z,12.70
2018-01-04T10:08:35.750Z,13.30
2018-01-04T10:11:01.917Z,10.70
2018-01-04T10:13:28.128Z,10.50
2018-01-04T10:15:54.463Z,19.10
2018-01-04T10:18:20.716Z,13.20
2018-01-04T10:20:46.934Z,13.13
2018-01-04T10:23:13.128Z,10.37
2018-01-04T10:25:39.292Z,12.67
2018-01-04T10:28:05.604Z,12.90
2018-01-04T10:30:31.790Z,12.77
2018-01-04T10:32:58.679Z,10.80
2018-01-04T10:35:25.011Z,20.77
2018-01-04T10:37:51.266Z,11.57
2018-01-04T10:40:17.485Z,10.43
2018-01-04T10:42:43.704Z,11.60
2018-01-04T10:45:09.920Z,11.87
2018-01-04T10:47:36.087Z,11.70
2018-01-04T10:50:02.425Z,13.07
2018-01-04T10:52:28.571Z,11.30
2018-01-04T10:54:55.526Z,12.63
2018-01-04T10:57:22.451Z,11.37
2018-01-04T10:59:48.626Z,15.03
2018-01-04T11:02:14.828Z,11.37
2018-01-04T11:04:40.990Z,13.80
2018-01-04T11:07:07.267Z,11.47
2018-01-04T11:09:33.476Z,13.17
2018-01-04T11:11:59.645Z,12.50
2018-01-04T11:14:25.960Z,11.73
2018-01-04T11:16:52.216Z,18.27
2018-01-04T11:19:19.130Z,10.97
2018-01-04T11:21:45.554Z,13.97
2018-01-04T11:24:11.780Z,11.40
2018-01-04T11:26:38.331Z,11.87
2018-01-04T11:29:04.547Z,12.80
2018-01-04T11:31:30.729Z,12.87
2018-01-04T11:33:56.930Z,13.17
2018-01-04T11:36:23.868Z,11.70
2018-01-04T11:38:50.083Z,13.73
2018-01-04T11:41:16.336Z,11.80
2018-01-04T11:43:42.561Z,11.67
2018-01-04T11:46:08.765Z,12.33
2018-01-04T11:48:34.979Z,12.07
2018-01-04T11:51:01.908Z,10.00
2018-01-04T11:53:28.316Z,9.47
2018-01-04T11:55:54.610Z,11.70
2018-01-04T11:58:21.097Z,10.80
2018-01-04T12:00:47.466Z,10.50
2018-01-04T12:03:13.779Z,12.23
2018-01-04T12:05:40.073Z,11.40
2018-01-04T12:08:06.424Z,9.80
2018-01-04T12:10:32.682Z,11.90
2018-01-04T12:12:58.937Z,9.93
2018-01-04T12:15:25.325Z,9.50
2018-01-04T12:17:51.584Z,11.20
2018-01-04T12:20:17.865Z,10.20
2018-01-04T12:22:44.142Z,12.20
2018-01-04T12:25:10.380Z,8.63
2018-01-04T12:27:36.552Z,10.77
2018-01-04T12:30:02.801Z,12.37
2018-01-04T12:32:28.969Z,8.63
2018-01-04T12:34:55.947Z,7.53
2018-01-04T12:37:22.104Z,7.33
2018-01-04T12:39:48.371Z,16.03
2018-01-04T12:42:14.551Z,12.13
2018-01-04T12:44:40.720Z,9.10
2018-01-04T12:47:06.989Z,7.90
2018-01-04T12:49:33.143Z,7.70
2018-01-04T12:51:59.367Z,7.77
2018-01-04T12:54:25.664Z,11.63
2018-01-04T12:56:51.849Z,9.53
2018-01-04T12:59:18.025Z,8.30
2018-01-04T13:01:44.234Z,8.10
2018-01-04T13:04:10.402Z,7.93
2018-01-04T13:06:36.580Z,7.73
2018-01-04T13:09:02.808Z,10.00
2018-01-04T13:11:28.975Z,10.33
2018-01-04T13:13:55.482Z,7.60
2018-01-04T13:16:22.646Z,7.37
2018-01-04T13:18:49.588Z,9.77
2018-01-04T13:21:15.743Z,9.30
2018-01-04T13:23:42.718Z,8.67
2018-01-04T13:26:08.849Z,8.50
2018-01-04T13:28:35.980Z,10.70
2018-01-04T13:31:02.156Z,12.23
2018-01-04T13:33:29.214Z,8.60
2018-01-04T13:35:56.120Z,10.33
2018-01-04T13:38:23.132Z,13.00
2018-01-04T13:40:49.293Z,13.80
2018-01-04T13:43:15.681Z,8.93
2018-01-04T13:45:41.848Z,10.20
2018-01-04T13:48:08.021Z,11.33
2018-01-04T13:50:34.542Z,8.40
2018-01-04T13:53:00.741Z,9.43
2018-01-04T13:55:26.918Z,11.40
2018-01-04T13:57:53.233Z,11.67
2018-01-04T14:00:19.408Z,13.77
2018-01-04T14:02:45.552Z,9.07
2018-01-04T14:05:12.038Z,11.40
2018-01-04T14:07:38.195Z,10.33
2018-01-04T14:10:04.392Z,11.10
2018-01-04T14:12:30.720Z,9.73
2018-01-04T14:14:56.897Z,9.30
2018-01-04T14:17:23.140Z,12.83
2018-01-04T14:19:49.441Z,13.53
2018-01-04T14:22:15.636Z,12.83
2018-01-04T14:24:41.828Z,15.00
2018-01-04T14:27:08.213Z,13.43
2018-01-04T14:29:34.412Z,14.40
2018-01-04T14:32:00.608Z,13.87
2018-01-04T14:34:26.843Z,12.97
2018-01-04T14:36:53.052Z,13.60
2018-01-04T14:39:19.236Z,14.73
2018-01-04T14:41:45.455Z,18.10
2018-01-04T14:44:11.645Z,14.77
2018-01-04T14:46:37.839Z,13.67
2018-01-04T14:49:05.060Z,17.70
2018-01-04T14:51:31.382Z,17.33
2018-01-04T14:53:57.612Z,17.40
2018-01-04T14:56:23.788Z,15.17
2018-01-04T14:58:50.153Z,23.30
2018-01-04T15:01:16.339Z,17.27
2018-01-04T15:03:42.540Z,17.87
2018-01-04T15:06:08.760Z,17.83
2018-01-04T15:08:34.950Z,21.03
2018-01-04T15:11:01.197Z,20.13
2018-01-04T15:13:27.519Z,21.90
2018-01-04T15:15:53.724Z,19.93
2018-01-04T15:18:19.964Z,24.13
2018-01-04T15:20:48.160Z,19.23
2018-01-04T15:23:14.549Z,24.90
2018-01-04T15:25:40.783Z,23.80
2018-01-04T15:28:07.009Z,26.73
2018-01-04T15:30:33.488Z,25.43
2018-01-04T15:32:59.696Z,21.00
2018-01-04T15:35:25.913Z,25.33
2018-01-04T15:37:52.263Z,22.70
2018-01-04T15:40:18.457Z,23.70
2018-01-04T15:42:45.381Z,25.23
2018-01-04T15:45:11.800Z,26.07
2018-01-04T15:47:38.036Z,26.70
2018-01-04T15:50:06.080Z,27.47
2018-01-04T15:52:32.292Z,27.70
2018-01-04T15:54:58.551Z,27.83
2018-01-04T15:57:24.751Z,27.97
2018-01-04T15:59:51.677Z,27.27
2018-01-04T16:02:17.920Z,33.20
2018-01-04T16:04:44.976Z,36.17
2018-01-04T16:07:11.955Z,35.73
2018-01-04T16:09:38.136Z,32.93
2018-01-04T16:12:04.481Z,35.90
2018-01-04T16:14:30.664Z,41.50
2018-01-04T16:16:56.842Z,42.07
2018-01-04T16:19:23.120Z,40.33
2018-01-04T16:21:49.289Z,42.20
2018-01-04T16:24:15.506Z,41.87
2018-01-04T16:26:42.516Z,43.60
2018-01-04T16:29:09.741Z,46.10
2018-01-04T16:31:36.676Z,43.80
2018-01-04T16:34:02.876Z,44.97
2018-01-04T16:36:29.172Z,45.27
2018-01-04T16:38:55.368Z,45.53
2018-01-04T16:41:21.508Z,44.90
2018-01-04T16:43:47.872Z,44.87
2018-01-04T16:46:14.091Z,46.40
2018-01-04T16:48:40.292Z,47.07
2018-01-04T16:51:07.288Z,49.40
2018-01-04T16:53:33.580Z,48.80
2018-01-04T16:55:59.751Z,49.60
2018-01-04T16:58:25.933Z,55.77
2018-01-04T17:00:52.209Z,46.10
2018-01-04T17:03:18.471Z,46.83
2018-01-04T17:05:44.659Z,61.53
2018-01-04T17:08:10.919Z,48.90
2018-01-04T17:10:37.167Z,50.00
2018-01-04T17:13:04.112Z,53.47
2018-01-04T17:15:30.369Z,48.20
2018-01-04T17:17:56.652Z,46.97
2018-01-04T17:20:22.841Z,41.47
2018-01-04T17:22:49.171Z,49.27
2018-01-04T17:25:15.400Z,50.53
2018-01-04T17:27:41.611Z,49.37
2018-01-04T17:30:07.845Z,45.17
2018-01-04T17:32:34.041Z,45.77
2018-01-04T17:35:00.259Z,51.50
2018-01-04T17:37:26.447Z,52.50
2018-01-04T17:39:52.673Z,45.80
2018-01-04T17:42:18.864Z,44.13
2018-01-04T17:44:45.143Z,50.37
2018-01-04T17:47:11.328Z,41.60
2018-01-04T17:49:37.496Z,38.90
2018-01-04T17:52:03.885Z,41.57
2018-01-04T17:54:30.039Z,44.97
2018-01-04T17:56:56.953Z,43.03
2018-01-04T17:59:23.386Z,48.00
2018-01-04T18:01:49.556Z,38.30
2018-01-04T18:04:15.750Z,34.00
2018-01-04T18:06:41.973Z,32.03
2018-01-04T18:09:08.157Z,33.40
2018-01-04T18:11:34.418Z,30.03
2018-01-04T18:14:00.615Z,30.53
2018-01-04T18:16:26.835Z,28.17
2018-01-04T18:18:53.058Z,27.37
2018-01-04T18:21:19.975Z,29.23
2018-01-04T18:23:46.516Z,23.40
2018-01-04T18:26:12.680Z,26.67
2018-01-04T18:28:38.876Z,26.07
2018-01-04T18:31:05.199Z,23.33
2018-01-04T18:33:32.191Z,26.73
2018-01-04T18:35:58.393Z,25.20
2018-01-04T18:38:25.416Z,27.87
2018-01-04T18:40:51.770Z,30.13
2018-01-04T18:43:17.968Z,25.97
2018-01-04T18:45:44.154Z,23.70
2018-01-04T18:48:11.108Z,27.67
2018-01-04T18:50:38.101Z,26.33
2018-01-04T18:53:04.317Z,21.40
2018-01-04T18:55:31.279Z,22.57
2018-01-04T18:57:57.832Z,24.17
2018-01-04T19:00:24.783Z,16.17
2018-01-04T19:02:50.945Z,20.20
2018-01-04T19:05:17.201Z,15.80
2018-01-04T19:07:43.386Z,17.87
2018-01-04T19:10:09.565Z,12.30
2018-01-04T19:12:36.556Z,13.80
2018-01-04T19:15:02.774Z,15.07
2018-01-04T19:17:29.302Z,8.03
2018-01-04T19:19:57.524Z,11.70
2018-01-04T19:22:23.787Z,8.50
2018-01-04T19:24:51.044Z,8.10
2018-01-04T19:27:17.284Z,13.43
2018-01-04T19:29:43.481Z,7.57
2018-01-04T19:32:11.192Z,2.40
2018-01-04T19:34:37.421Z,2.47
2018-01-04T19:37:03.687Z,2.37
2018-01-04T19:39:30.217Z,4.10
2018-01-04T19:41:56.523Z,1.93
2018-01-04T19:44:23.483Z,2.43
2018-01-04T19:46:50.485Z,1.67
2018-01-04T19:49:16.817Z,2.20
2018-01-04T19:51:43.120Z,1.53
2018-01-04T19:54:10.168Z,2.90
2018-01-04T19:56:36.396Z,3.43
2018-01-04T19:59:02.952Z,1.97
2018-01-04T20:01:29.154Z,3.63
2018-01-04T20:03:55.622Z,4.43
2018-01-04T20:06:22.201Z,2.20
2018-01-04T20:08:48.546Z,2.60
2018-01-04T20:11:14.789Z,2.73
2018-01-04T20:13:41.256Z,1.73
2018-01-04T20:16:08.499Z,1.90
2018-01-04T20:18:34.712Z,1.50
2018-01-04T20:21:00.963Z,2.90
2018-01-04T20:23:27.242Z,2.70
2018-01-04T20:25:54.256Z,6.30
2018-01-04T20:28:20.459Z,3.23
2018-01-04T20:30:46.767Z,4.00
2018-01-04T20:33:12.950Z,6.13
2018-01-04T20:35:39.128Z,5.10
2018-01-04T20:38:05.469Z,7.33
2018-01-04T20:40:31.674Z,1.80
2018-01-04T20:42:57.916Z,7.50
2018-01-04T20:45:24.161Z,1.73
2018-01-04T20:47:50.452Z,3.63
2018-01-04T20:50:16.660Z,4.67
2018-01-04T20:52:42.938Z,5.63
2018-01-04T20:55:09.326Z,8.23
2018-01-04T20:57:35.581Z,5.13
2018-01-04T21:00:01.924Z,7.40
2018-01-04T21:02:28.219Z,7.70
2018-01-04T21:04:54.493Z,7.67
2018-01-04T21:07:20.816Z,10.03
2018-01-04T21:09:47.837Z,6.60
2018-01-04T21:12:15.153Z,10.73
2018-01-04T21:14:41.361Z,16.87
2018-01-04T21:17:08.332Z,15.60
2018-01-04T21:19:35.421Z,19.37
2018-01-04T21:22:01.626Z,25.30
2018-01-04T21:24:28.690Z,20.27
2018-01-04T21:26:55.085Z,28.03
2018-01-04T21:29:21.353Z,16.57
2018-01-04T21:31:47.571Z,25.23
2018-01-04T21:34:14.836Z,23.80
2018-01-04T21:36:41.186Z,21.67
2018-01-04T21:39:07.374Z,27.13
2018-01-04T21:41:33.620Z,21.07
2018-01-04T21:44:00.127Z,24.43
2018-01-04T21:46:26.365Z,23.75
2018-01-04T21:48:52.826Z,20.73
2018-01-04T21:51:19.168Z,22.13
2018-01-04T21:53:45.533Z,19.20
2018-01-04T21:56:12.555Z,22.87
2018-01-04T21:58:38.808Z,19.87
2018-01-04T22:01:05.150Z,17.73
2018-01-04T22:03:31.623Z,21.23
2018-01-04T22:05:58.644Z,26.53
2018-01-04T22:08:25.045Z,23.20
2018-01-04T22:10:51.318Z,21.20
2018-01-04T22:13:17.618Z,25.93
2018-01-04T22:15:44.095Z,15.87
2018-01-04T22:18:10.537Z,26.93
2018-01-04T22:20:37.849Z,31.30
2018-01-04T22:23:04.127Z,13.80
2018-01-04T22:25:30.653Z,24.87
2018-01-04T22:27:56.895Z,25.93
2018-01-04T22:30:23.352Z,16.20
2018-01-04T22:32:50.381Z,22.00
2018-01-04T22:35:16.574Z,18.10
2018-01-04T22:37:42.897Z,15.47
2018-01-04T22:40:09.370Z,25.30
2018-01-04T22:42:35.677Z,22.50
2018-01-04T22:45:01.940Z,15.67
2018-01-04T22:47:28.397Z,22.43
2018-01-04T22:49:54.857Z,20.80
2018-01-04T22:52:21.107Z,23.70
2018-01-04T22:54:47.356Z,23.10
2018-01-04T22:57:14.802Z,23.20
2018-01-04T22:59:41.110Z,27.87
2018-01-04T23:02:08.036Z,27.60
2018-01-04T23:04:35.821Z,23.70
2018-01-04T23:07:02.879Z,15.20
2018-01-04T23:09:30.368Z,24.90
2018-01-04T23:11:56.701Z,35.23
2018-01-04T23:14:22.933Z,22.87
2018-01-04T23:16:49.220Z,15.73
2018-01-04T23:19:16.387Z,26.03
2018-01-04T23:21:42.694Z,30.10
2018-01-04T23:24:08.900Z,37.60
2018-01-04T23:29:08.022Z,28.97
2018-01-04T23:31:36.244Z,36.97
2018-01-04T23:34:03.548Z,25.87
2018-01-04T23:36:30.588Z,24.77
2018-01-04T23:38:57.177Z,27.03
2018-01-04T23:41:23.402Z,24.77
2018-01-04T23:43:50.467Z,18.80
2018-01-04T23:46:17.569Z,30.97
2018-01-04T23:48:43.858Z,45.87
2018-01-04T23:51:10.114Z,25.40
2018-01-04T23:53:36.425Z,34.67
2018-01-04T23:56:02.732Z,28.30
2018-01-04T23:58:29.989Z,32.90
